createdAt,value
2024-04-15T00:01:40.958Z,71.94
2024-04-15T00:04:08.302Z,71.96
2024-04-15T00:06:35.603Z,72.07
2024-04-15T00:09:02.765Z,71.66
2024-04-15T00:11:30.020Z,71.67
2024-04-15T00:13:57.162Z,71.79
2024-04-15T00:16:24.409Z,71.63
2024-04-15T00:18:51.740Z,71.36
2024-04-15T00:21:19.011Z,71.23
2024-04-15T00:23:47.514Z,71.45
2024-04-15T00:26:14.885Z,71.20
2024-04-15T00:28:42.181Z,71.33
2024-04-15T00:31:09.680Z,71.20
2024-04-15T00:33:37.217Z,71.30
2024-04-15T00:36:05.141Z,71.38
2024-04-15T00:38:32.378Z,71.06
2024-04-15T00:40:59.875Z,71.23
2024-04-15T00:43:27.151Z,71.01
2024-04-15T00:45:54.431Z,70.97
2024-04-15T00:48:21.702Z,70.88
2024-04-15T00:50:50.790Z,70.99
2024-04-15T00:53:23.715Z,71.06
2024-04-15T00:55:54.949Z,70.50
2024-04-15T00:58:25.705Z,70.34
2024-04-15T01:00:54.939Z,70.80
2024-04-15T01:03:23.570Z,70.55
2024-04-15T01:05:51.357Z,70.50
2024-04-15T01:08:19.068Z,70.20
2024-04-15T01:10:55.556Z,70.00
2024-04-15T01:13:27.995Z,70.52
2024-04-15T01:16:02.150Z,70.28
2024-04-15T01:18:30.629Z,70.11
2024-04-15T01:20:59.829Z,70.23
2024-04-15T01:23:39.339Z,70.12
2024-04-15T01:26:06.562Z,70.15
2024-04-15T01:28:33.886Z,70.34
2024-04-15T01:31:01.350Z,70.11
2024-04-15T01:33:28.496Z,70.25
2024-04-15T01:35:55.794Z,70.17
2024-04-15T01:38:23.017Z,70.04
2024-04-15T01:40:50.277Z,69.98
2024-04-15T01:43:19.282Z,69.76
2024-04-15T01:45:46.934Z,70.21
2024-04-15T01:48:14.471Z,69.89
2024-04-15T01:50:41.710Z,69.82
2024-04-15T01:53:12.763Z,69.78
2024-04-15T01:55:40.290Z,69.61
2024-04-15T01:58:07.572Z,69.64
2024-04-15T02:00:35.312Z,69.45
2024-04-15T02:03:02.983Z,69.34
2024-04-15T02:05:30.204Z,69.37
2024-04-15T02:07:58.484Z,69.30
2024-04-15T02:10:26.108Z,69.22
2024-04-15T02:12:53.654Z,69.40
2024-04-15T02:15:21.939Z,69.13
2024-04-15T02:17:49.922Z,69.10
2024-04-15T02:20:17.828Z,69.11
2024-04-15T02:22:45.221Z,68.89
2024-04-15T02:25:12.725Z,69.10
2024-04-15T02:27:40.008Z,69.38
2024-04-15T02:30:08.699Z,69.34
2024-04-15T02:32:36.233Z,69.45
2024-04-15T02:35:03.619Z,69.43
2024-04-15T02:37:32.048Z,69.36
2024-04-15T02:39:59.316Z,69.44
2024-04-15T02:42:26.738Z,69.54
2024-04-15T02:44:53.975Z,69.83
2024-04-15T02:47:22.007Z,69.63
2024-04-15T02:49:49.279Z,69.69
2024-04-15T02:52:16.594Z,69.91
2024-04-15T02:54:43.985Z,69.83
2024-04-15T02:57:11.194Z,69.72
2024-04-15T02:59:40.248Z,70.02
2024-04-15T03:02:07.578Z,69.95
2024-04-15T03:04:35.059Z,70.04
2024-04-15T03:07:02.356Z,70.32
2024-04-15T03:09:29.661Z,70.35
2024-04-15T03:11:57.161Z,70.44
2024-04-15T03:14:24.474Z,70.47
2024-04-15T03:16:51.742Z,70.40
2024-04-15T03:19:19.206Z,70.52
2024-04-15T03:21:46.436Z,70.52
2024-04-15T03:24:13.886Z,70.50
2024-04-15T03:26:41.262Z,70.55
2024-04-15T03:29:08.447Z,70.58
2024-04-15T03:31:35.710Z,70.66
2024-04-15T03:34:03.119Z,70.70
2024-04-15T03:36:30.375Z,70.65
2024-04-15T03:38:57.857Z,70.64
2024-04-15T03:41:25.095Z,70.70
2024-04-15T03:43:53.298Z,70.65
2024-04-15T03:46:20.599Z,70.46
2024-04-15T03:48:48.009Z,70.53
2024-04-15T03:51:15.437Z,70.45
2024-04-15T03:53:42.664Z,70.44
2024-04-15T03:56:09.994Z,70.41
2024-04-15T03:58:37.139Z,70.41
2024-04-15T04:01:04.687Z,70.31
2024-04-15T04:03:32.030Z,70.12
2024-04-15T04:06:10.048Z,69.90
2024-04-15T04:08:41.094Z,69.74
2024-04-15T04:11:09.325Z,69.52
2024-04-15T04:13:39.553Z,69.33
2024-04-15T04:16:07.227Z,69.30
2024-04-15T04:18:34.716Z,69.14
2024-04-15T04:21:02.232Z,68.92
2024-04-15T04:23:29.494Z,68.84
2024-04-15T04:25:56.770Z,68.67
2024-04-15T04:28:24.034Z,68.47
2024-04-15T04:30:51.365Z,68.29
2024-04-15T04:33:18.672Z,68.20
2024-04-15T04:35:46.166Z,68.04
2024-04-15T04:38:13.435Z,67.96
2024-04-15T04:40:40.669Z,67.76
2024-04-15T04:43:08.068Z,67.60
2024-04-15T04:45:35.325Z,67.38
2024-04-15T04:48:02.889Z,67.19
2024-04-15T04:50:30.113Z,67.19
2024-04-15T04:52:57.772Z,66.98
2024-04-15T04:55:25.176Z,66.76
2024-04-15T04:57:52.578Z,66.73
2024-04-15T05:00:19.946Z,66.58
2024-04-15T05:02:50.415Z,66.38
2024-04-15T05:05:17.827Z,66.49
2024-04-15T05:07:45.226Z,65.89
2024-04-15T05:10:16.181Z,66.14
2024-04-15T05:12:45.103Z,65.99
2024-04-15T05:15:15.430Z,65.92
2024-04-15T05:17:43.486Z,65.72
2024-04-15T05:20:13.967Z,65.79
2024-04-15T05:22:45.570Z,65.38
2024-04-15T05:25:13.308Z,65.17
2024-04-15T05:27:41.058Z,64.85
2024-04-15T05:30:09.195Z,64.86
2024-04-15T05:32:36.830Z,64.54
2024-04-15T05:35:05.041Z,64.49
2024-04-15T05:37:32.724Z,64.43
2024-04-15T05:40:00.659Z,64.07
2024-04-15T05:42:28.238Z,64.11
2024-04-15T05:44:55.861Z,63.70
2024-04-15T05:47:23.205Z,63.34
2024-04-15T05:49:50.854Z,62.82
2024-04-15T05:52:19.190Z,62.77
2024-04-15T05:54:46.789Z,62.33
2024-04-15T05:57:14.277Z,62.45
2024-04-15T05:59:41.839Z,62.11
2024-04-15T06:02:09.414Z,62.06
2024-04-15T06:04:37.009Z,61.95
2024-04-15T06:07:04.673Z,61.81
2024-04-15T06:09:33.556Z,61.56
2024-04-15T06:12:01.178Z,61.27
2024-04-15T06:14:28.873Z,60.89
2024-04-15T06:16:56.361Z,60.64
2024-04-15T06:19:24.306Z,60.75
2024-04-15T06:21:52.413Z,60.39
2024-04-15T06:24:20.370Z,60.32
2024-04-15T06:26:49.005Z,59.94
2024-04-15T06:29:16.231Z,59.32
2024-04-15T06:31:43.625Z,59.39
2024-04-15T06:34:11.378Z,59.41
2024-04-15T06:36:38.948Z,59.14
2024-04-15T06:39:06.360Z,59.06
2024-04-15T06:41:33.644Z,58.61
2024-04-15T06:44:01.233Z,58.24
2024-04-15T06:46:28.904Z,57.80
2024-04-15T06:48:56.489Z,57.65
2024-04-15T06:51:23.956Z,57.11
2024-04-15T06:53:52.412Z,56.88
2024-04-15T06:56:22.802Z,56.93
2024-04-15T06:58:50.043Z,56.54
2024-04-15T07:01:17.610Z,55.89
2024-04-15T07:03:45.972Z,55.26
2024-04-15T07:06:16.268Z,54.75
2024-04-15T07:08:44.857Z,54.88
2024-04-15T07:11:12.598Z,54.75
2024-04-15T07:13:39.779Z,54.45
2024-04-15T07:16:07.797Z,54.26
2024-04-15T07:18:35.194Z,53.80
2024-04-15T07:21:02.934Z,53.23
2024-04-15T07:23:30.508Z,53.44
2024-04-15T07:26:01.772Z,53.20
2024-04-15T07:28:29.896Z,53.40
2024-04-15T07:30:59.896Z,53.39
2024-04-15T07:33:27.924Z,53.35
2024-04-15T07:36:00.442Z,52.26
2024-04-15T07:38:28.300Z,52.89
2024-04-15T07:41:00.897Z,52.47
2024-04-15T07:43:30.887Z,52.74
2024-04-15T07:45:58.585Z,52.31
2024-04-15T07:48:26.639Z,51.94
2024-04-15T07:50:56.079Z,51.81
2024-04-15T07:53:23.654Z,51.54
2024-04-15T07:55:51.238Z,51.36
2024-04-15T07:58:18.847Z,51.31
2024-04-15T08:00:46.288Z,51.37
2024-04-15T08:03:13.886Z,51.38
2024-04-15T08:05:41.695Z,51.42
2024-04-15T08:08:17.986Z,51.05
2024-04-15T08:11:19.221Z,50.44
2024-04-15T08:13:46.827Z,50.83
2024-04-15T08:16:14.564Z,50.01
2024-04-15T08:18:41.981Z,50.00
2024-04-15T08:21:09.230Z,49.74
2024-04-15T08:23:36.659Z,49.89
2024-04-15T08:26:05.156Z,49.78
2024-04-15T08:28:32.608Z,49.32
2024-04-15T08:31:00.267Z,48.94
2024-04-15T08:33:27.596Z,48.66
2024-04-15T08:35:55.222Z,48.58
2024-04-15T08:38:22.797Z,48.19
2024-04-15T08:40:55.195Z,46.90
2024-04-15T08:43:23.943Z,47.15
2024-04-15T08:45:59.747Z,46.51
2024-04-15T08:48:27.855Z,46.85
2024-04-15T08:50:56.516Z,46.49
2024-04-15T08:53:25.078Z,46.90
2024-04-15T08:55:52.402Z,46.86
2024-04-15T08:58:20.482Z,47.37
2024-04-15T09:00:52.095Z,47.39
2024-04-15T09:03:22.014Z,47.89
2024-04-15T09:05:49.601Z,47.85
2024-04-15T09:08:16.993Z,48.01
2024-04-15T09:10:44.467Z,48.26
2024-04-15T09:13:12.219Z,48.16
2024-04-15T09:15:41.129Z,48.01
2024-04-15T09:18:10.578Z,47.98
2024-04-15T09:20:49.454Z,48.13
2024-04-15T09:23:25.545Z,47.87
2024-04-15T09:25:52.875Z,47.82
2024-04-15T09:28:20.268Z,47.99
2024-04-15T09:30:48.668Z,47.76
2024-04-15T09:33:22.858Z,47.98
2024-04-15T09:35:54.195Z,47.88
2024-04-15T09:38:23.255Z,47.50
2024-04-15T09:40:54.750Z,47.73
2024-04-15T09:43:27.152Z,47.50
2024-04-15T09:45:55.158Z,47.79
2024-04-15T09:48:25.102Z,48.01
2024-04-15T09:51:28.153Z,47.63
2024-04-15T09:57:12.690Z,47.76
2024-04-15T09:59:50.031Z,47.75
2024-04-15T10:02:41.322Z,47.81
2024-04-15T10:05:32.419Z,47.22
2024-04-15T10:08:09.864Z,47.82
2024-04-15T10:13:43.928Z,47.89
2024-04-15T10:23:12.857Z,47.49
2024-04-15T10:26:24.964Z,48.02
2024-04-15T10:36:22.761Z,47.61
2024-04-15T10:38:56.458Z,47.82
2024-04-15T11:05:52.341Z,47.12
2024-04-15T11:25:58.364Z,48.13
2024-04-15T11:29:22.018Z,48.26
2024-04-15T11:48:34.667Z,49.92
2024-04-15T11:51:25.269Z,49.76
2024-04-15T11:54:15.640Z,49.82
2024-04-15T11:56:46.682Z,50.07
2024-04-15T11:59:16.798Z,50.02
2024-04-15T12:01:50.777Z,49.57
2024-04-15T12:04:21.786Z,49.44
2024-04-15T12:07:13.442Z,49.69
2024-04-15T12:09:42.913Z,49.93
2024-04-15T12:24:39.182Z,50.87
2024-04-15T12:30:22.608Z,51.72
2024-04-15T12:36:13.048Z,52.52
2024-04-15T12:38:37.529Z,53.94
2024-04-15T12:41:15.194Z,55.67
2024-04-15T12:44:09.701Z,56.07
2024-04-15T12:47:05.401Z,59.04
2024-04-15T12:49:34.010Z,57.09
2024-04-15T12:52:32.603Z,58.89
2024-04-15T12:55:01.334Z,57.94
2024-04-15T13:06:15.232Z,58.84
2024-04-15T13:08:42.851Z,59.40
2024-04-15T13:11:31.381Z,62.34
2024-04-15T13:13:58.851Z,60.23
2024-04-15T13:16:26.505Z,60.53
2024-04-15T13:26:54.965Z,59.57
2024-04-15T13:31:20.099Z,58.09
2024-04-15T13:34:17.652Z,59.54
2024-04-15T13:36:49.898Z,58.49
2024-04-15T13:39:21.781Z,55.47
2024-04-15T13:42:14.192Z,52.56
2024-04-15T13:44:44.932Z,54.10
2024-04-15T13:47:14.962Z,53.72
2024-04-15T13:58:24.675Z,53.10
2024-04-15T14:01:11.575Z,52.39
2024-04-15T14:03:42.211Z,53.22
2024-04-15T14:06:11.963Z,52.51
2024-04-15T14:08:40.384Z,51.40
2024-04-15T14:11:09.778Z,49.98
2024-04-15T14:13:37.463Z,50.08
2024-04-15T14:16:05.661Z,50.13
2024-04-15T14:18:35.253Z,50.15
2024-04-15T14:21:06.455Z,50.12
2024-04-15T14:23:34.710Z,50.30
2024-04-15T14:26:03.732Z,50.37
2024-04-15T14:28:31.218Z,50.47
2024-04-15T14:31:00.030Z,50.47
2024-04-15T14:33:30.282Z,49.93
2024-04-15T14:35:58.336Z,49.67
2024-04-15T14:38:27.754Z,49.52
2024-04-15T14:40:58.192Z,49.51
2024-04-15T14:43:26.269Z,49.78
2024-04-15T14:45:59.574Z,50.30
2024-04-15T14:48:27.620Z,50.78
2024-04-15T14:51:00.880Z,51.41
2024-04-15T14:53:30.701Z,52.18
2024-04-15T14:55:58.356Z,53.76
2024-04-15T14:58:25.912Z,55.49
2024-04-15T15:00:53.723Z,56.74
2024-04-15T15:03:21.284Z,57.75
2024-04-15T15:05:52.538Z,58.58
2024-04-15T15:08:21.888Z,58.87
2024-04-15T15:10:49.541Z,59.51
2024-04-15T15:13:17.049Z,59.59
2024-04-15T15:15:47.862Z,60.93
2024-04-15T15:18:16.236Z,60.06
2024-04-15T15:20:43.834Z,60.63
2024-04-15T15:23:11.413Z,61.10
2024-04-15T15:25:41.906Z,61.87
2024-04-15T15:28:11.635Z,62.30
2024-04-15T15:30:39.534Z,62.61
2024-04-15T15:33:07.290Z,62.64
2024-04-15T15:35:34.760Z,63.15
2024-04-15T15:38:02.778Z,63.08
2024-04-15T15:40:31.159Z,63.39
2024-04-15T15:42:58.713Z,63.39
2024-04-15T15:45:27.445Z,63.69
2024-04-15T15:47:56.986Z,64.25
2024-04-15T15:50:24.334Z,64.33
2024-04-15T15:52:51.642Z,64.71
2024-04-15T15:55:20.788Z,64.75
2024-04-15T15:57:48.455Z,65.06
2024-04-15T16:00:17.020Z,65.23
2024-04-15T16:02:50.457Z,65.60
2024-04-15T16:05:18.944Z,65.72
2024-04-15T16:07:46.685Z,65.43
2024-04-15T16:10:16.883Z,65.77
2024-04-15T16:12:45.838Z,65.85
2024-04-15T16:15:13.487Z,66.06
2024-04-15T16:17:41.680Z,65.99
2024-04-15T16:20:12.159Z,66.06
2024-04-15T16:22:39.653Z,66.13
2024-04-15T16:25:11.296Z,66.42
2024-04-15T16:27:38.969Z,66.69
2024-04-15T16:30:17.189Z,66.76
2024-04-15T16:32:46.962Z,66.88
2024-04-15T16:35:15.691Z,67.58
2024-04-15T16:37:43.227Z,68.07
2024-04-15T16:40:11.340Z,68.88
2024-04-15T16:42:38.937Z,69.68
2024-04-15T16:45:07.123Z,69.88
2024-04-15T16:47:35.199Z,70.22
2024-04-15T16:50:09.079Z,70.43
2024-04-15T16:52:37.242Z,70.74
2024-04-15T16:55:06.339Z,70.86
2024-04-15T16:57:34.138Z,71.19
2024-04-15T17:00:07.398Z,71.83
2024-04-15T17:02:35.118Z,71.58
2024-04-15T17:05:03.297Z,71.79
2024-04-15T17:07:31.169Z,71.63
2024-04-15T17:09:59.413Z,71.93
2024-04-15T17:12:27.446Z,72.10
2024-04-15T17:14:56.560Z,71.83
2024-04-15T17:17:29.330Z,71.89
2024-04-15T17:19:57.026Z,72.21
2024-04-15T17:22:25.284Z,72.11
2024-04-15T17:24:54.261Z,72.20
2024-04-15T17:27:26.434Z,73.07
2024-04-15T17:29:55.914Z,73.05
2024-04-15T17:32:30.506Z,72.96
2024-04-15T17:34:58.854Z,73.19
2024-04-15T17:37:30.234Z,73.45
2024-04-15T17:40:03.431Z,73.26
2024-04-15T17:42:41.465Z,73.28
2024-04-15T17:45:18.915Z,73.24
2024-04-15T17:47:47.493Z,73.22
2024-04-15T17:50:15.073Z,73.48
2024-04-15T17:52:42.616Z,73.86
2024-04-15T17:55:11.665Z,73.68
2024-04-15T17:57:39.735Z,74.04
2024-04-15T18:00:07.807Z,73.99
2024-04-15T18:02:35.710Z,74.14
2024-04-15T18:05:06.454Z,73.77
2024-04-15T18:07:35.685Z,74.14
2024-04-15T18:10:04.135Z,73.97
2024-04-15T18:12:32.413Z,73.86
2024-04-15T18:15:03.417Z,73.93
2024-04-15T18:17:38.948Z,74.48
2024-04-15T18:20:08.698Z,74.33
2024-04-15T18:22:36.557Z,74.72
2024-04-15T18:25:04.442Z,74.45
2024-04-15T18:27:32.098Z,74.36
2024-04-15T18:29:59.762Z,74.84
2024-04-15T18:32:27.337Z,74.64
2024-04-15T18:34:54.774Z,74.61
2024-04-15T18:37:22.428Z,74.61
2024-04-15T18:39:50.020Z,74.64
2024-04-15T18:42:18.133Z,74.69
2024-04-15T18:44:46.055Z,74.92
2024-04-15T18:47:13.498Z,75.05
2024-04-15T18:49:40.928Z,75.04
2024-04-15T18:52:08.605Z,74.91
2024-04-15T18:54:36.159Z,75.07
2024-04-15T18:57:03.973Z,75.06
2024-04-15T18:59:31.511Z,75.08
2024-04-15T19:02:01.241Z,75.09
2024-04-15T19:04:28.928Z,75.01
2024-04-15T19:06:56.612Z,74.93
2024-04-15T19:09:24.136Z,75.03
2024-04-15T19:11:51.551Z,75.04
2024-04-15T19:14:21.168Z,75.06
2024-04-15T19:16:49.051Z,74.94
2024-04-15T19:19:16.529Z,75.05
2024-04-15T19:21:44.198Z,75.04
2024-04-15T19:24:12.885Z,75.23
2024-04-15T19:26:41.635Z,75.17
2024-04-15T19:29:09.455Z,75.00
2024-04-15T19:31:37.216Z,74.82
2024-04-15T19:34:04.715Z,75.09
2024-04-15T19:36:32.400Z,75.24
2024-04-15T19:38:59.698Z,75.19
2024-04-15T19:41:31.273Z,75.17
2024-04-15T19:43:58.961Z,75.19
2024-04-15T19:46:26.763Z,75.24
2024-04-15T19:48:56.680Z,75.16
2024-04-15T19:51:24.315Z,74.82
2024-04-15T19:53:52.550Z,75.29
2024-04-15T19:56:20.048Z,75.12
2024-04-15T19:58:47.364Z,75.17
2024-04-15T20:01:15.733Z,75.26
2024-04-15T20:03:43.474Z,75.33
2024-04-15T20:06:11.566Z,75.14
2024-04-15T20:08:38.980Z,75.16
2024-04-15T20:11:06.473Z,75.15
2024-04-15T20:13:34.179Z,74.88
2024-04-15T20:16:01.634Z,74.98
2024-04-15T20:18:37.436Z,75.08
2024-04-15T20:21:05.681Z,74.87
2024-04-15T20:23:35.681Z,75.10
2024-04-15T20:26:03.457Z,75.04
2024-04-15T20:28:30.977Z,74.84
2024-04-15T20:30:58.580Z,74.98
2024-04-15T20:33:26.252Z,74.88
2024-04-15T20:35:53.689Z,74.92
2024-04-15T20:38:21.227Z,74.71
2024-04-15T20:40:48.967Z,75.08
2024-04-15T20:43:16.225Z,75.04
2024-04-15T20:45:49.506Z,74.95
2024-04-15T20:48:18.835Z,74.62
2024-04-15T20:50:46.755Z,74.56
2024-04-15T20:53:14.210Z,74.59
2024-04-15T20:55:41.929Z,74.73
2024-04-15T20:58:10.392Z,74.55
2024-04-15T21:00:38.074Z,74.51
2024-04-15T21:03:06.143Z,74.63
2024-04-15T21:05:33.773Z,74.39
2024-04-15T21:08:01.132Z,74.38
2024-04-15T21:10:31.042Z,74.58
2024-04-15T21:13:01.329Z,74.60
2024-04-15T21:15:28.978Z,74.65
2024-04-15T21:17:56.462Z,74.60
2024-04-15T21:20:24.640Z,74.83
2024-04-15T21:22:52.336Z,74.72
2024-04-15T21:25:19.996Z,74.67
2024-04-15T21:27:47.458Z,74.73
2024-04-15T21:30:14.988Z,74.67
2024-04-15T21:32:42.522Z,74.61
2024-04-15T21:35:09.995Z,74.84
2024-04-15T21:37:37.303Z,74.79
2024-04-15T21:40:05.124Z,74.79
2024-04-15T21:42:32.979Z,74.97
2024-04-15T21:45:02.303Z,74.83
2024-04-15T21:47:32.165Z,74.66
2024-04-15T21:49:59.911Z,74.78
2024-04-15T21:52:27.652Z,74.68
2024-04-15T21:54:55.221Z,74.83
2024-04-15T21:57:26.366Z,74.79
2024-04-15T21:59:54.045Z,74.77
2024-04-15T22:02:21.451Z,74.75
2024-04-15T22:04:59.564Z,74.65
2024-04-15T22:07:32.925Z,74.52
2024-04-15T22:10:01.293Z,74.58
2024-04-15T22:12:31.255Z,74.59
2024-04-15T22:14:58.721Z,74.65
2024-04-15T22:17:29.160Z,74.57
2024-04-15T22:19:56.999Z,74.62
2024-04-15T22:22:24.570Z,74.51
2024-04-15T22:24:52.364Z,74.49
2024-04-15T22:27:19.853Z,74.58
2024-04-15T22:29:47.376Z,74.65
2024-04-15T22:32:14.990Z,74.59
2024-04-15T22:34:43.032Z,74.71
2024-04-15T22:37:14.237Z,74.58
2024-04-15T22:39:42.003Z,74.63
2024-04-15T22:42:09.775Z,74.78
2024-04-15T22:44:37.294Z,74.98
2024-04-15T22:47:05.301Z,74.93
2024-04-15T22:49:32.720Z,75.02
2024-04-15T22:52:01.157Z,75.00
2024-04-15T22:54:31.080Z,75.06
2024-04-15T22:57:01.205Z,75.17
2024-04-15T22:59:28.919Z,74.93
2024-04-15T23:01:56.817Z,75.06
2024-04-15T23:04:24.561Z,74.95
2024-04-15T23:06:52.051Z,74.93
2024-04-15T23:09:20.317Z,74.73
2024-04-15T23:11:50.441Z,74.71
2024-04-15T23:14:23.082Z,74.79
2024-04-15T23:16:56.234Z,74.76
2024-04-15T23:19:36.677Z,74.56
2024-04-15T23:22:04.749Z,74.65
2024-04-15T23:24:33.833Z,74.79
2024-04-15T23:27:05.397Z,74.51
2024-04-15T23:29:35.869Z,74.50
2024-04-15T23:32:05.455Z,74.50
2024-04-15T23:34:39.808Z,74.51
2024-04-15T23:37:07.505Z,74.44
2024-04-15T23:39:34.706Z,74.30
2024-04-15T23:42:02.084Z,74.48
2024-04-15T23:44:34.108Z,74.40
2024-04-15T23:47:19.985Z,74.33
2024-04-15T23:50:06.454Z,74.50
2024-04-15T23:52:52.412Z,74.42
2024-04-15T23:55:39.797Z,74.31
2024-04-15T23:58:10.511Z,74.35
